Playa Del Carmen, ROO, Mexico
Current Conditions -  °F | °C
As of 3:43 AM on Monday 20 Oct 2014 (Local Time) from MMCZ Reporting Station
Few Clouds Few Clouds  
Wind Chill: 70°   Ceiling: Unl
Heat Index: 70°   Visibility: 7mi
Dew Point: 70°   Wind: 0mph
Humidity: 100%   Direction: NA
Pressure: 29.87"   Gusts: NA
Location:  20.62°N, 87.07°W
Report Text: MMCZ 200843Z 00000KT 7SM FEW015 21/21 A2987 RMK SLP123 57006 966 8/400 RTS
Loading
Personal Weather Stations






























Interactive Weather Map New forecast layout! Learn more

10-Day Weather Forecast

Advertisements
Track Severe Weather on mobile